Time;durP1;ratioP1;P1;durP2;ratioP2;P2;SDS_P1;SDS_P2;PMS_P1;PMS_P2;Temp;Humidity;BMP_temperature;BMP_pressure;BME280_temperature;BME280_humidity;BME280_pressure;Samples;Min_cycle;Max_cycle;Signal;HPM_P1;HPM_P2
2021/07/13 00:01:48;;;;;;;;;;;;;;;16.23;100.00;98967.72;5014804;28;20423;-78
2021/07/13 00:04:15;;;;;;;;;;;;;;;16.30;100.00;98957.41;5014974;28;19926;-78
2021/07/13 00:06:47;;;;;;;;;;;;;;;16.39;100.00;98957.44;5014781;28;19925;-78
2021/07/13 00:09:14;;;;;;;;;;;;;;;16.10;100.00;98952.94;5015135;28;19930;-78
2021/07/13 00:11:41;;;;;;;;;;;;;;;16.32;100.00;98954.88;5014765;28;19932;-78
2021/07/13 00:14:08;;;;;;;;;;;;;;;16.42;100.00;98962.91;4950892;28;1839419;-77
2021/07/13 00:16:35;;;;;;;;;;;;;;;16.41;100.00;98954.91;5016008;28;19933;-78
2021/07/13 00:19:02;;;;;;;;;;;;;;;16.40;100.00;98954.16;5016098;28;19929;-78
2021/07/13 00:21:30;;;;;;;;;;;;;;;16.49;100.00;98953.41;4998522;28;19926;-78
2021/07/13 00:23:57;;;;;;;;;;;;;;;16.50;100.00;98949.34;4998321;28;19930;-78
2021/07/13 00:26:24;;;;;;;;;;;;;;;16.50;100.00;98949.34;4998683;28;19926;-78
2021/07/13 00:28:51;;;;;;;;;;;;;;;16.56;100.00;98947.47;5015849;28;19972;-78
2021/07/13 00:31:18;;;;;;;;;;;;;;;16.55;100.00;98943.09;5015617;28;20021;-78
2021/07/13 00:33:46;;;;;;;;;;;;;;;16.54;100.00;98950.75;5015572;28;19933;-78
2021/07/13 00:36:13;;;;;;;;;;;;;;;16.52;100.00;98949.66;4998499;28;20046;-78
2021/07/13 00:38:40;;;;;;;;;;;;;;;16.27;100.00;98945.00;5015953;28;19926;-78
2021/07/13 00:41:07;;;;;;;;;;;;;;;16.33;100.00;98959.28;5015604;28;20020;-78
2021/07/13 00:43:34;;;;;;;;;;;;;;;16.27;100.00;98951.44;4982077;28;19926;-78
2021/07/13 00:46:03;;;;;;;;;;;;;;;16.33;100.00;98957.25;5015208;28;19951;-78
2021/07/13 00:48:30;;;;;;;;;;;;;;;16.41;100.00;98963.38;4998245;28;19926;-78
2021/07/13 00:50:58;;;;;;;;;;;;;;;16.44;100.00;98963.28;5015500;28;19934;-78
2021/07/13 00:53:26;;;;;;;;;;;;;;;16.39;100.00;98965.91;5015471;28;19929;-78
2021/07/13 00:55:56;;;;;;;;;;;;;;;16.39;100.00;98968.72;4997964;28;19948;-78
2021/07/13 00:58:24;;;;;;;;;;;;;;;16.45;100.00;98973.28;5015311;28;20019;-78
2021/07/13 01:00:52;;;;;;;;;;;;;;;16.50;100.00;98978.34;5015306;28;19964;-78
2021/07/13 01:03:19;;;;;;;;;;;;;;;16.32;100.00;98977.44;4997534;28;19929;-78
2021/07/13 01:05:48;;;;;;;;;;;;;;;16.11;100.00;98971.41;5015486;28;20020;-78
2021/07/13 01:08:17;;;;;;;;;;;;;;;16.18;100.00;98988.06;5015176;28;20312;-78
2021/07/13 01:10:44;;;;;;;;;;;;;;;16.34;100.00;98991.88;5015167;28;20045;-78
2021/07/13 01:13:21;;;;;;;;;;;;;;;16.32;100.00;98985.91;4981393;28;20308;-78
2021/07/13 01:15:55;;;;;;;;;;;;;;;16.33;100.00;98990.31;4975164;28;19933;-78
2021/07/13 01:18:24;;;;;;;;;;;;;;;16.43;100.00;99003.19;4974695;28;20349;-78
2021/07/13 01:20:51;;;;;;;;;;;;;;;16.41;100.00;98994.41;4974890;28;19926;-78
2021/07/13 01:23:21;;;;;;;;;;;;;;;16.45;100.00;98986.63;4975891;28;19930;-78
2021/07/13 01:26:01;;;;;;;;;;;;;;;16.53;100.00;98985.06;4974560;28;19926;-78
2021/07/13 01:28:32;;;;;;;;;;;;;;;16.56;100.00;98987.75;4975763;28;19933;-78
2021/07/13 01:31:04;;;;;;;;;;;;;;;16.57;100.00;98980.84;4975907;28;19930;-78
2021/07/13 01:33:31;;;;;;;;;;;;;;;16.64;100.00;98974.94;4975753;28;20410;-78
2021/07/13 01:36:04;;;;;;;;;;;;;;;16.60;100.00;98976.34;4958386;28;19933;-78
2021/07/13 01:38:33;;;;;;;;;;;;;;;16.44;100.00;98982.22;4974604;28;19926;-78
2021/07/13 01:41:02;;;;;;;;;;;;;;;16.52;100.00;98977.88;4975533;28;20418;-78
2021/07/13 01:43:29;;;;;;;;;;;;;;;16.50;100.00;98975.50;4974291;28;19930;-78
2021/07/13 01:45:57;;;;;;;;;;;;;;;16.56;100.00;98973.66;4961799;28;19953;-78
2021/07/13 01:48:27;;;;;;;;;;;;;;;16.57;100.00;98975.22;4974204;28;20003;-78
2021/07/13 01:50:55;;;;;;;;;;;;;;;16.64;100.00;98982.59;4975366;28;19933;-78
2021/07/13 01:53:23;;;;;;;;;;;;;;;16.59;100.00;98984.00;4974348;28;19926;-78
2021/07/13 01:55:52;;;;;;;;;;;;;;;16.59;100.00;98977.56;4975266;28;20445;-78
2021/07/13 01:58:21;;;;;;;;;;;;;;;16.56;100.00;98978.50;4974989;28;19926;-78
2021/07/13 02:00:48;;;;;;;;;;;;;;;16.57;100.00;98974.44;4975578;28;19930;-78
2021/07/13 02:03:16;;;;;;;;;;;;;;;16.63;100.00;98973.34;4973880;28;19927;-78
2021/07/13 02:05:45;;;;;;;;;;;;;;;16.61;100.00;98980.72;4975332;28;20358;-78
2021/07/13 02:08:12;;;;;;;;;;;;;;;16.66;100.00;98969.59;4975029;28;19930;-78
2021/07/13 02:10:39;;;;;;;;;;;;;;;16.62;100.00;98971.00;4973865;28;19934;-78
2021/07/13 02:13:08;;;;;;;;;;;;;;;16.61;100.00;98972.25;4974734;28;20425;-77
2021/07/13 02:15:36;;;;;;;;;;;;;;;16.58;100.00;98964.72;4991835;28;19934;-78
2021/07/13 02:18:03;;;;;;;;;;;;;;;16.62;100.00;98976.63;4994425;28;20407;-78
2021/07/13 02:20:31;;;;;;;;;;;;;;;16.56;100.00;98975.66;4993030;28;19929;-78
2021/07/13 02:22:58;;;;;;;;;;;;;;;16.51;100.00;98976.31;4994195;28;20347;-78
2021/07/13 02:25:27;;;;;;;;;;;;;;;16.42;100.00;98973.44;4994214;28;20378;-78
2021/07/13 02:27:57;;;;;;;;;;;;;;;16.37;100.00;98971.22;4994032;28;19926;-78
2021/07/13 02:30:25;;;;;;;;;;;;;;;16.34;100.00;98974.97;4993988;28;20175;-78
2021/07/13 02:32:57;;;;;;;;;;;;;;;16.35;100.00;98968.06;4994039;28;19929;-78
2021/07/13 02:35:33;;;;;;;;;;;;;;;16.35;100.00;98968.06;4993845;28;19934;-78
2021/07/13 02:38:01;;;;;;;;;;;;;;;16.36;100.00;98961.19;4994031;28;19929;-78
2021/07/13 02:40:28;;;;;;;;;;;;;;;16.35;100.00;98953.97;4993764;28;19925;-78
2021/07/13 02:42:56;;;;;;;;;;;;;;;16.39;100.00;98957.44;4976781;28;19926;-78
2021/07/13 02:45:23;;;;;;;;;;;;;;;16.30;100.00;98948.94;4992811;28;19926;-78
2021/07/13 02:47:51;;;;;;;;;;;;;;;16.23;100.00;98941.56;4992113;28;19972;-78
2021/07/13 02:50:18;;;;;;;;;;;;;;;16.22;100.00;98937.94;4993168;28;20016;-78
2021/07/13 02:52:47;;;;;;;;;;;;;;;15.99;100.00;98940.53;4993367;28;19933;-78
2021/07/13 02:55:16;;;;;;;;;;;;;;;15.98;100.00;98950.19;4993337;28;19925;-78
2021/07/13 02:57:47;;;;;;;;;;;;;;;16.04;100.00;98948.34;4993590;28;19926;-78
2021/07/13 03:00:15;;;;;;;;;;;;;;;16.10;100.00;98958.56;4993593;28;19927;-78
2021/07/13 03:02:44;;;;;;;;;;;;;;;16.20;100.00;98951.75;4992438;28;19926;-78
2021/07/13 03:05:15;;;;;;;;;;;;;;;16.25;100.00;98953.16;4993218;28;19937;-78
2021/07/13 03:07:42;;;;;;;;;;;;;;;16.34;100.00;98953.19;4992469;28;19980;-78
2021/07/13 03:10:10;;;;;;;;;;;;;;;16.41;100.00;98954.91;4992107;28;19926;-78
2021/07/13 03:12:37;;;;;;;;;;;;;;;16.48;100.00;98949.03;4993301;28;20057;-78
2021/07/13 03:15:05;;;;;;;;;;;;;;;16.52;100.00;98952.47;5007964;28;19926;-78
2021/07/13 03:17:32;;;;;;;;;;;;;;;16.51;100.00;98960.16;5013034;28;19925;-78
2021/07/13 03:19:59;;;;;;;;;;;;;;;16.55;100.00;98962.84;5012750;28;19980;-78
2021/07/13 03:22:30;;;;;;;;;;;;;;;16.55;100.00;98957.97;5012918;28;19971;-78
2021/07/13 03:24:59;;;;;;;;;;;;;;;16.65;100.00;98964.41;4995373;28;19986;-78
2021/07/13 03:27:28;;;;;;;;;;;;;;;16.64;100.00;98962.84;5010784;28;19933;-78
2021/07/13 03:29:56;;;;;;;;;;;;;;;16.65;100.00;98967.22;4995274;28;19936;-78
2021/07/13 03:32:24;;;;;;;;;;;;;;;16.58;100.00;98965.50;5012591;28;19925;-79
2021/07/13 03:34:52;;;;;;;;;;;;;;;16.57;100.00;98966.75;4995133;28;19926;-78
2021/07/13 03:37:20;;;;;;;;;;;;;;;16.55;100.00;98965.66;5012691;28;19929;-79
2021/07/13 03:39:48;;;;;;;;;;;;;;;16.56;100.00;98970.81;4978985;28;19925;-79
2021/07/13 03:42:17;;;;;;;;;;;;;;;16.19;100.00;98972.69;5012409;28;19932;-78
2021/07/13 03:44:44;;;;;;;;;;;;;;;16.24;100.00;98960.81;5012755;28;19926;-78
2021/07/13 03:47:12;;;;;;;;;;;;;;;16.07;100.00;98970.75;5012337;28;19933;-78
2021/07/13 03:49:40;;;;;;;;;;;;;;;15.95;100.00;98968.81;4995335;28;19936;-77
2021/07/13 03:52:08;;;;;;;;;;;;;;;16.07;100.00;98975.59;4995145;28;19925;-78
2021/07/13 03:54:36;;;;;;;;;;;;;;;16.23;100.00;98983.84;4994732;28;20025;-78
2021/07/13 03:57:04;;;;;;;;;;;;;;;16.27;100.00;98980.88;5012449;28;19929;-78
2021/07/13 03:59:32;;;;;;;;;;;;;;;16.25;100.00;98993.41;4994909;28;19948;-78
2021/07/13 04:02:00;;;;;;;;;;;;;;;16.18;100.00;98987.25;5012380;28;19941;-78
2021/07/13 04:04:27;;;;;;;;;;;;;;;16.23;100.00;98995.13;5012624;28;19932;-77
2021/07/13 04:06:54;;;;;;;;;;;;;;;16.24;100.00;98996.69;4995001;28;19932;-78
2021/07/13 04:09:21;;;;;;;;;;;;;;;16.24;100.00;98996.69;5012298;28;19926;-78
2021/07/13 04:11:48;;;;;;;;;;;;;;;16.32;100.00;98997.19;5012206;28;19929;-78
2021/07/13 04:14:15;;;;;;;;;;;;;;;16.38;100.00;98989.69;5012240;28;20387;-78
2021/07/13 04:16:43;;;;;;;;;;;;;;;16.24;100.00;98994.66;4994809;28;19925;-78
2021/07/13 04:19:10;;;;;;;;;;;;;;;16.34;100.00;98989.06;5012272;28;19936;-78
2021/07/13 04:21:37;;;;;;;;;;;;;;;16.37;100.00;98988.13;4978607;28;19934;-78
2021/07/13 04:24:10;;;;;;;;;;;;;;;16.37;100.00;99005.03;4994683;28;19968;-77
2021/07/13 04:26:37;;;;;;;;;;;;;;;16.42;100.00;99001.63;5011878;28;19932;-78
2021/07/13 04:29:04;;;;;;;;;;;;;;;16.50;100.00;99002.91;5012307;28;20285;-78
2021/07/13 04:31:31;;;;;;;;;;;;;;;16.50;100.00;99012.19;5012458;28;19925;-78
2021/07/13 04:33:59;;;;;;;;;;;;;;;16.56;100.00;98998.25;5012080;28;19925;-78
2021/07/13 04:36:26;;;;;;;;;;;;;;;16.52;100.00;99004.03;5012203;28;20384;-78
2021/07/13 04:38:55;;;;;;;;;;;;;;;16.52;100.00;99003.25;5014343;28;19987;-78
2021/07/13 04:41:22;;;;;;;;;;;;;;;16.55;100.00;99007.97;5015905;28;19969;-78
2021/07/13 04:43:50;;;;;;;;;;;;;;;16.63;100.00;99006.44;5015641;28;19925;-78
2021/07/13 04:46:17;;;;;;;;;;;;;;;16.67;100.00;99007.84;4998077;28;20394;-77
2021/07/13 04:48:44;;;;;;;;;;;;;;;16.71;100.00;99007.69;5015597;28;20051;-78
2021/07/13 04:51:11;;;;;;;;;;;;;;;16.71;100.00;99013.31;5015477;28;19934;-78
2021/07/13 04:53:38;;;;;;;;;;;;;;;16.57;100.00;99019.56;5015343;28;19945;-78
2021/07/13 04:56:06;;;;;;;;;;;;;;;16.45;100.00;99018.41;5015183;28;19926;-78
2021/07/13 04:58:33;;;;;;;;;;;;;;;16.44;100.00;99021.69;4998003;28;20396;-78
2021/07/13 05:01:00;;;;;;;;;;;;;;;16.53;100.00;99016.09;5015163;28;19936;-78
2021/07/13 05:03:27;;;;;;;;;;;;;;;16.53;100.00;99013.25;5015433;28;19926;-78
2021/07/13 05:05:54;;;;;;;;;;;;;;;16.65;100.00;99006.72;5015213;28;20296;-78
2021/07/13 05:08:22;;;;;;;;;;;;;;;16.62;100.00;99010.47;5015013;28;19925;-78
2021/07/13 05:10:49;;;;;;;;;;;;;;;16.78;100.00;99013.81;5015166;28;20012;-78
2021/07/13 05:13:16;;;;;;;;;;;;;;;16.86;100.00;99014.31;5014897;28;20401;-78
2021/07/13 05:15:44;;;;;;;;;;;;;;;16.91;100.00;99010.88;5015144;28;19972;-78
2021/07/13 05:18:12;;;;;;;;;;;;;;;16.76;100.00;99005.06;4997650;28;19929;-78
2021/07/13 05:20:43;;;;;;;;;;;;;;;16.74;100.00;99012.38;5014740;28;20020;-78
2021/07/13 05:23:10;;;;;;;;;;;;;;;16.84;100.00;99011.19;4997515;28;20118;-78
2021/07/13 05:25:38;;;;;;;;;;;;;;;16.86;100.00;99008.66;5015046;28;19972;-78
2021/07/13 05:28:12;;;;;;;;;;;;;;;16.53;100.00;99002.00;4997478;28;19932;-78
2021/07/13 05:30:41;;;;;;;;;;;;;;;16.74;100.00;99006.75;5015124;28;19925;-78
2021/07/13 05:33:08;;;;;;;;;;;;;;;16.80;100.00;99016.16;4997311;28;20381;-78
2021/07/13 05:35:35;;;;;;;;;;;;;;;16.78;100.00;99024.34;5014260;28;20258;-78
2021/07/13 05:38:03;;;;;;;;;;;;;;;16.88;100.00;99012.59;5014700;28;19933;-78
2021/07/13 05:40:30;;;;;;;;;;;;;;;16.88;100.00;99020.28;5014556;28;19929;-78
2021/07/13 05:42:57;;;;;;;;;;;;;;;16.82;100.00;99024.97;4997132;28;20519;-78
2021/07/13 05:45:25;;;;;;;;;;;;;;;16.79;100.00;99025.91;5014460;28;19980;-78
2021/07/13 05:47:52;;;;;;;;;;;;;;;16.76;100.00;99026.81;4997011;28;19930;-78
2021/07/13 05:50:19;;;;;;;;;;;;;;;16.76;100.00;99033.25;5012986;28;19957;-78
2021/07/13 05:52:46;;;;;;;;;;;;;;;16.77;100.00;99031.22;5014351;28;19987;-78
2021/07/13 05:55:13;;;;;;;;;;;;;;;16.80;100.00;99030.28;5014358;28;19933;-78
2021/07/13 05:57:40;;;;;;;;;;;;;;;16.86;100.00;99034.06;5014206;28;19936;-78
2021/07/13 06:00:09;;;;;;;;;;;;;;;16.77;100.00;99034.81;5014327;28;19936;-78
2021/07/13 06:02:42;;;;;;;;;;;;;;;16.76;100.00;99040.94;5013833;28;20399;-78
2021/07/13 06:05:10;;;;;;;;;;;;;;;16.72;100.00;99045.94;5014012;28;19926;-78
2021/07/13 06:07:41;;;;;;;;;;;;;;;16.83;100.00;99043.44;4996656;28;19925;-78
2021/07/13 06:10:08;;;;;;;;;;;;;;;16.65;100.00;99046.22;5014322;28;19929;-77
2021/07/13 06:12:35;;;;;;;;;;;;;;;16.75;100.00;99042.19;4996679;28;19925;-78
2021/07/13 06:15:03;;;;;;;;;;;;;;;16.71;100.00;99047.19;5013817;28;19930;-78
2021/07/13 06:17:30;;;;;;;;;;;;;;;16.65;100.00;99049.84;4996735;28;19929;-78
2021/07/13 06:19:57;;;;;;;;;;;;;;;16.73;100.00;99059.59;4996348;28;19932;-78
2021/07/13 06:22:25;;;;;;;;;;;;;;;16.59;100.00;99056.53;5013722;28;19925;-78
2021/07/13 06:24:53;;;;;;;;;;;;;;;16.56;100.00;99058.25;4980143;28;19980;-78
2021/07/13 06:27:20;;;;;;;;;;;;;;;16.65;100.00;99071.59;5013746;28;20431;-78
2021/07/13 06:29:47;;;;;;;;;;;;;;;16.55;100.00;99070.00;4996480;28;19933;-78
2021/07/13 06:32:14;;;;;;;;;;;;;;;16.53;100.00;99069.69;5013747;28;19979;-78
2021/07/13 06:34:41;;;;;;;;;;;;;;;16.58;100.00;99071.91;5013346;28;19976;-78
2021/07/13 06:37:08;;;;;;;;;;;;;;;16.44;100.00;99076.06;4995923;28;19957;-78
2021/07/13 06:39:35;;;;;;;;;;;;;;;16.58;100.00;99083.19;5014008;28;19972;-78
2021/07/13 06:42:03;;;;;;;;;;;;;;;16.69;100.00;99089.19;5013348;28;19940;-78
2021/07/13 06:44:30;;;;;;;;;;;;;;;16.74;100.00;99088.56;5013500;28;19929;-78
2021/07/13 06:46:57;;;;;;;;;;;;;;;16.81;100.00;99091.88;5013198;28;20411;-78
2021/07/13 06:49:24;;;;;;;;;;;;;;;16.88;100.00;99100.09;5013412;28;19926;-78
2021/07/13 06:51:51;;;;;;;;;;;;;;;16.86;100.00;99093.31;4995809;28;19944;-78
2021/07/13 06:54:18;;;;;;;;;;;;;;;16.69;100.00;99094.84;5013131;28;19925;-78
2021/07/13 06:56:46;;;;;;;;;;;;;;;16.85;100.00;99092.56;5013093;28;19929;-78
2021/07/13 06:59:13;;;;;;;;;;;;;;;17.00;100.00;99101.22;4995867;28;19926;-78
2021/07/13 07:01:40;;;;;;;;;;;;;;;17.03;100.00;99109.53;4995300;28;20341;-78
2021/07/13 07:04:07;;;;;;;;;;;;;;;16.96;100.00;99115.47;4996008;28;19940;-78
2021/07/13 07:06:34;;;;;;;;;;;;;;;16.94;100.00;99117.19;4995481;28;20451;-78
2021/07/13 07:09:02;;;;;;;;;;;;;;;16.59;100.00;99110.13;4979587;28;19933;-78
2021/07/13 07:11:29;;;;;;;;;;;;;;;16.67;100.00;99112.22;5012876;28;19931;-78
2021/07/13 07:13:57;;;;;;;;;;;;;;;16.81;100.00;99113.69;4995534;28;19926;-78
2021/07/13 07:16:24;;;;;;;;;;;;;;;16.82;100.00;99115.25;5012633;28;19925;-77
2021/07/13 07:18:51;;;;;;;;;;;;;;;16.90;100.00;99119.38;5012958;28;19934;-78
2021/07/13 07:21:18;;;;;;;;;;;;;;;16.99;100.00;99116.59;5012591;28;19925;-78
2021/07/13 07:23:46;;;;;;;;;;;;;;;17.03;100.00;99131.31;5012877;28;19929;-78
2021/07/13 07:26:13;;;;;;;;;;;;;;;17.05;100.00;99123.97;5012905;28;19926;-78
2021/07/13 07:28:41;;;;;;;;;;;;;;;17.04;100.00;99133.69;5012725;28;19963;-78
2021/07/13 07:31:09;;;;;;;;;;;;;;;16.95;100.00;99130.81;5012686;28;19925;-78
2021/07/13 07:33:36;;;;;;;;;;;;;;;16.95;100.00;99135.72;4995344;28;20007;-77
2021/07/13 07:36:04;;;;;;;;;;;;;;;17.00;100.00;99133.06;5012481;28;20366;-78
2021/07/13 07:38:31;;;;;;;;;;;;;;;17.02;100.00;99129.75;4995451;28;19929;-78
2021/07/13 07:40:58;;;;;;;;;;;;;;;16.78;100.00;99137.19;5012842;28;19926;-78
2021/07/13 07:43:25;;;;;;;;;;;;;;;16.95;100.00;99135.72;5012521;28;19926;-78
2021/07/13 07:45:52;;;;;;;;;;;;;;;16.96;100.00;99142.91;5012523;28;19932;-78
2021/07/13 07:48:21;;;;;;;;;;;;;;;16.80;100.00;99131.84;4995113;28;19965;-78
2021/07/13 07:50:48;;;;;;;;;;;;;;;16.90;100.00;99134.28;5012261;28;19926;-78
2021/07/13 07:53:15;;;;;;;;;;;;;;;17.07;100.00;99137.63;4995062;28;19936;-78
2021/07/13 07:55:43;;;;;;;;;;;;;;;17.33;100.00;99144.59;4978882;28;20380;-78
2021/07/13 07:58:10;;;;;;;;;;;;;;;17.28;100.00;99148.03;4995241;28;19929;-78
2021/07/13 08:00:39;;;;;;;;;;;;;;;17.33;100.00;99150.22;5012284;28;19930;-78
2021/07/13 08:03:09;;;;;;;;;;;;;;;17.28;100.00;99153.69;5012269;28;19925;-78
2021/07/13 08:05:37;;;;;;;;;;;;;;;17.37;100.00;99146.00;4995307;28;19952;-78
2021/07/13 08:08:04;;;;;;;;;;;;;;;17.48;100.00;99139.94;5012564;28;19932;-78
2021/07/13 08:10:31;;;;;;;;;;;;;;;17.63;100.00;99143.75;4994645;28;20025;-78
2021/07/13 08:12:59;;;;;;;;;;;;;;;17.59;100.00;99146.72;5013231;28;19930;-78
2021/07/13 08:15:26;;;;;;;;;;;;;;;17.48;100.00;99139.94;5015926;28;19926;-79
2021/07/13 08:17:54;;;;;;;;;;;;;;;17.42;100.00;99144.59;5015867;28;19960;-79
2021/07/13 08:20:21;;;;;;;;;;;;;;;17.38;100.00;99147.59;5016156;28;19936;-77
2021/07/13 08:22:49;;;;;;;;;;;;;;;17.43;100.00;99143.38;4998906;28;19925;-77
2021/07/13 08:25:19;;;;;;;;;;;;;;;17.39;100.00;99140.69;4998592;28;19948;-77
2021/07/13 08:27:47;;;;;;;;;;;;;;;17.41;100.00;99143.03;4998656;28;20016;-77
2021/07/13 08:30:15;;;;;;;;;;;;;;;17.49;100.00;99135.88;4982082;28;19925;-77
2021/07/13 08:32:42;;;;;;;;;;;;;;;17.54;100.00;99138.84;5015783;28;20317;-77
2021/07/13 08:35:09;;;;;;;;;;;;;;;17.69;100.00;99144.72;5015769;28;20020;-77
2021/07/13 08:37:37;;;;;;;;;;;;;;;17.77;100.00;99145.94;5016008;28;19926;-77
2021/07/13 08:40:12;;;;;;;;;;;;;;;17.47;100.00;99144.03;5015657;28;19926;-77
2021/07/13 08:42:40;;;;;;;;;;;;;;;17.36;100.00;99143.66;5015798;28;20305;-77
2021/07/13 08:45:09;;;;;;;;;;;;;;;17.40;100.00;99133.00;5015305;28;19929;-77
2021/07/13 08:47:39;;;;;;;;;;;;;;;17.66;100.00;99142.81;5015632;28;19929;-77
2021/07/13 08:50:07;;;;;;;;;;;;;;;17.86;100.00;99141.09;5015723;28;20348;-77
2021/07/13 08:52:35;;;;;;;;;;;;;;;17.91;100.00;99146.13;4981728;28;20472;-77
2021/07/13 08:55:04;;;;;;;;;;;;;;;17.35;100.00;99127.97;4998328;28;19933;-77
2021/07/13 08:57:31;;;;;;;;;;;;;;;17.44;100.00;99133.66;4997524;28;20024;-77
2021/07/13 08:59:58;;;;;;;;;;;;;;;17.52;100.00;99141.34;5015506;28;19926;-77
2021/07/13 09:02:25;;;;;;;;;;;;;;;17.67;100.00;99144.38;4997891;28;19925;-77
2021/07/13 09:04:52;;;;;;;;;;;;;;;17.68;100.00;99137.47;5015272;28;20060;-77
2021/07/13 09:07:19;;;;;;;;;;;;;;;17.92;100.00;99138.41;5015358;28;19926;-77
2021/07/13 09:09:52;;;;;;;;;;;;;;;17.93;100.00;99137.19;5015118;28;20044;-77
2021/07/13 09:12:22;;;;;;;;;;;;;;;18.11;100.00;99133.53;5015083;28;20364;-77
2021/07/13 09:14:55;;;;;;;;;;;;;;;18.23;100.00;99139.03;4997395;28;19932;-77
2021/07/13 09:17:36;;;;;;;;;;;;;;;18.20;100.00;99134.31;5015140;28;20408;-77
2021/07/13 09:20:12;;;;;;;;;;;;;;;18.24;100.00;99131.31;5015084;28;19929;-77
2021/07/13 09:22:51;;;;;;;;;;;;;;;18.43;100.00;99125.22;5015149;28;19933;-77
2021/07/13 09:25:23;;;;;;;;;;;;;;;18.78;100.00;99129.16;5014875;28;20020;-78
2021/07/13 09:28:09;;;;;;;;;;;;;;;18.55;100.00;99132.72;5014829;28;20004;-77
2021/07/13 09:30:37;;;;;;;;;;;;;;;17.78;100.00;99133.41;5001839;28;19972;-77
2021/07/13 09:33:11;;;;;;;;;;;;;;;17.71;100.00;99136.53;5014855;28;20381;-77
2021/07/13 09:35:57;;;;;;;;;;;;;;;18.06;100.00;99134.16;4968448;28;19929;-77
2021/07/13 09:38:25;;;;;;;;;;;;;;;17.79;100.00;99132.13;5014734;28;19972;-77
2021/07/13 09:41:03;;;;;;;;;;;;;;;17.56;100.00;99124.25;4997085;28;20435;-77
2021/07/13 09:43:41;;;;;;;;;;;;;;;17.53;100.00;99114.69;4997120;28;20462;-77
2021/07/13 09:46:21;;;;;;;;;;;;;;;17.70;100.00;99118.81;5014810;28;20016;-77
2021/07/13 09:49:04;;;;;;;;;;;;;;;17.94;100.00;99127.44;4980755;28;19933;-78
2021/07/13 09:51:32;;;;;;;;;;;;;;;18.18;100.00;99136.84;4996829;28;20377;-78
2021/07/13 09:54:26;;;;;;;;;;;;;;;18.33;100.00;99132.09;5014399;28;19926;-78
2021/07/13 09:56:53;;;;;;;;;;;;;;;18.42;100.00;99120.78;5014023;28;19929;-77
2021/07/13 09:59:20;;;;;;;;;;;;;;;18.08;100.00;99115.50;5014161;28;20017;-78
2021/07/13 10:01:49;;;;;;;;;;;;;;;18.55;100.00;99120.59;5014284;28;19926;-78
2021/07/13 10:04:16;;;;;;;;;;;;;;;18.49;100.00;99111.19;4996876;28;20408;-78
2021/07/13 10:06:44;;;;;;;;;;;;;;;18.86;100.00;99113.41;5000551;28;19933;-77
2021/07/13 10:09:11;;;;;;;;;;;;;;;19.03;100.00;99111.78;5014389;28;19937;-77
2021/07/13 10:11:40;;;;;;;;;;;;;;;19.24;100.00;99109.91;4996400;28;19925;-77
2021/07/13 10:14:07;;;;;;;;;;;;;;;19.23;100.00;99108.34;5013965;28;20270;-77
2021/07/13 10:16:35;;;;;;;;;;;;;;;19.23;100.00;99109.16;5013790;28;19979;-77
2021/07/13 10:19:04;;;;;;;;;;;;;;;19.28;100.00;99111.34;4996630;28;19925;-77
2021/07/13 10:21:33;;;;;;;;;;;;;;;19.29;100.00;99112.13;5013819;28;19926;-77
2021/07/13 10:24:02;;;;;;;;;;;;;;;19.55;100.00;99113.22;5013942;28;20448;-77
2021/07/13 10:26:50;;;;;;;;;;;;;;;19.29;100.00;99100.78;4996017;28;19929;-77
2021/07/13 10:29:32;;;;;;;;;;;;;;;19.46;100.00;99093.44;5013617;28;19925;-77
2021/07/13 10:32:07;;;;;;;;;;;;;;;19.46;100.00;99099.88;4996142;28;19980;-80
2021/07/13 10:34:54;;;;;;;;;;;;;;;19.67;100.00;99103.69;4996450;28;19929;-77
2021/07/13 10:37:27;;;;;;;;;;;;;;;19.81;100.00;99096.50;4979498;28;20408;-77
2021/07/13 10:39:57;;;;;;;;;;;;;;;19.58;100.00;99098.84;5013536;28;19925;-77
2021/07/13 10:42:40;;;;;;;;;;;;;;;19.33;100.00;99107.84;5013342;28;19932;-77
2021/07/13 10:45:27;;;;;;;;;;;;;;;19.42;100.00;99115.50;5013621;28;19960;-77
2021/07/13 10:48:07;;;;;;;;;;;;;;;19.54;100.00;99109.59;4996354;28;19972;-78
2021/07/13 10:50:47;;;;;;;;;;;;;;;19.78;100.00;99114.47;5013279;28;20372;-77
2021/07/13 10:53:29;;;;;;;;;;;;;;;19.87;100.00;99103.06;5013398;28;20336;-77
2021/07/13 10:56:01;;;;;;;;;;;;;;;19.92;100.00;99103.16;5013028;28;19932;-78
2021/07/13 10:58:38;;;;;;;;;;;;;;;19.92;100.00;99114.50;4979742;28;20379;-77
2021/07/13 11:01:23;;;;;;;;;;;;;;;20.16;100.00;99112.41;4995541;28;20127;-77
2021/07/13 11:03:52;;;;;;;;;;;;;;;20.66;100.00;99105.56;5013413;28;19925;-78
2021/07/13 11:06:20;;;;;;;;;;;;;;;20.88;100.00;99111.63;4979242;28;19939;-78
2021/07/13 11:08:48;;;;;;;;;;;;;;;20.91;100.00;99109.88;4979311;28;20277;-78
2021/07/13 11:11:15;;;;;;;;;;;;;;;20.76;100.00;99114.78;5012925;28;20407;-77
2021/07/13 11:13:43;;;;;;;;;;;;;;;20.68;100.00;99108.72;4995318;28;19925;-78
2021/07/13 11:16:11;;;;;;;;;;;;;;;20.64;100.00;99104.50;5012879;28;20292;-77
2021/07/13 11:18:39;;;;;;;;;;;;;;;20.74;100.00;99095.41;5012966;28;19936;-78
2021/07/13 11:21:15;;;;;;;;;;;;;;;21.01;100.00;99097.13;5012958;28;19929;-77
2021/07/13 11:23:42;;;;;;;;;;;;;;;21.08;100.00;99091.81;5012585;28;19925;-78
2021/07/13 11:26:11;;;;;;;;;;;;;;;20.97;100.00;99099.41;4995343;28;19936;-77
2021/07/13 11:28:38;;;;;;;;;;;;;;;20.40;100.00;99092.50;4995165;28;19933;-77
2021/07/13 11:31:06;;;;;;;;;;;;;;;19.73;100.00;99096.09;4979402;28;19980;-77
2021/07/13 11:33:33;;;;;;;;;;;;;;;19.91;100.00;99103.63;4995161;28;20444;-77
2021/07/13 11:36:00;;;;;;;;;;;;;;;19.94;100.00;99100.63;5012978;28;19930;-77
2021/07/13 11:38:29;;;;;;;;;;;;;;;20.11;100.00;99100.94;5012368;28;19929;-77
2021/07/13 11:41:13;;;;;;;;;;;;;;;20.25;100.00;99098.13;5012696;28;19968;-77
2021/07/13 11:43:41;;;;;;;;;;;;;;;20.42;100.00;99090.72;5012658;28;19925;-77
2021/07/13 11:46:13;;;;;;;;;;;;;;;20.37;100.00;99096.31;5012750;28;20368;-77
2021/07/13 11:48:52;;;;;;;;;;;;;;;20.33;100.00;99087.19;5016379;28;19926;-77
2021/07/13 11:51:38;;;;;;;;;;;;;;;20.53;100.00;99090.13;5016724;28;20210;-77
2021/07/13 11:54:07;;;;;;;;;;;;;;;20.72;100.00;99085.81;5016589;28;19929;-77
2021/07/13 11:56:36;;;;;;;;;;;;;;;20.44;100.00;99087.38;5016308;28;19929;-77
2021/07/13 11:59:03;;;;;;;;;;;;;;;20.65;100.00;99086.19;5016710;28;19925;-77
2021/07/13 12:01:32;;;;;;;;;;;;;;;20.83;100.00;99075.41;5016457;28;19932;-77
2021/07/13 12:04:08;;;;;;;;;;;;;;;20.86;100.00;99099.19;4999364;28;20011;-77
2021/07/13 12:06:36;;;;;;;;;;;;;;;20.75;100.00;99082.75;5016241;28;20005;-77
2021/07/13 12:09:04;;;;;;;;;;;;;;;21.04;100.00;99090.47;5016378;28;20372;-77
2021/07/13 12:11:32;;;;;;;;;;;;;;;21.19;100.00;99091.19;5016253;28;19933;-78
2021/07/13 12:14:01;;;;;;;;;;;;;;;21.47;100.00;99091.59;5016215;28;19925;-78
2021/07/13 12:16:29;;;;;;;;;;;;;;;21.83;100.00;99094.69;5016001;28;19926;-78
2021/07/13 12:18:58;;;;;;;;;;;;;;;21.81;100.00;99085.09;4998766;28;19937;-78
2021/07/13 12:21:26;;;;;;;;;;;;;;;21.80;100.00;99077.81;5015855;28;20012;-78
2021/07/13 12:23:56;;;;;;;;;;;;;;;21.50;100.00;99088.53;5016107;28;19929;-77
2021/07/13 12:26:27;;;;;;;;;;;;;;;21.52;100.00;99088.84;5016050;28;20358;-78
2021/07/13 12:29:03;;;;;;;;;;;;;;;21.45;100.00;99088.47;4985895;28;19983;-78
2021/07/13 12:31:37;;;;;;;;;;;;;;;21.56;100.00;99095.09;4982337;28;19926;-78
2021/07/13 12:34:15;;;;;;;;;;;;;;;21.10;100.00;99086.44;5016021;28;19932;-77
2021/07/13 12:36:42;;;;;;;;;;;;;;;21.35;100.00;99100.00;4981928;28;20415;-77
2021/07/13 12:39:12;;;;;;;;;;;;;;;21.25;100.00;99090.00;5015983;28;19936;-77
2021/07/13 12:41:40;;;;;;;;;;;;;;;21.06;100.00;99090.75;5015830;28;19926;-77
2021/07/13 12:44:25;;;;;;;;;;;;;;;20.65;100.00;99097.56;4998256;28;19953;-77
2021/07/13 12:46:53;;;;;;;;;;;;;;;21.09;100.00;99098.28;5015498;28;19926;-77